sensor_id;sensor_type;location;lat;lon;timestamp;pressure;altitude;pressure_sealevel;temperature;humidity
72285;BME280;60220;53.552;10.092;2022-09-09T00:01:22;100607.31;;;15.12;88.32
72285;BME280;60220;53.552;10.092;2022-09-09T00:03:54;100609.38;;;14.76;89.39
72285;BME280;60220;53.552;10.092;2022-09-09T00:06:28;100605.16;;;14.96;89.16
72285;BME280;60220;53.552;10.092;2022-09-09T00:09:01;100599.56;;;15.05;89.17
72285;BME280;60220;53.552;10.092;2022-09-09T00:11:36;100593.84;;;15.19;87.88
72285;BME280;60220;53.552;10.092;2022-09-09T00:14:13;100597.41;;;15.18;88.12
72285;BME280;60220;53.552;10.092;2022-09-09T00:16:47;100593.94;;;15.41;86.30
72285;BME280;60220;53.552;10.092;2022-09-09T00:19:18;100598.84;;;15.00;88.35
72285;BME280;60220;53.552;10.092;2022-09-09T00:21:53;100604.34;;;14.94;88.78
72285;BME280;60220;53.552;10.092;2022-09-09T00:24:26;100603.75;;;15.13;88.83
72285;BME280;60220;53.552;10.092;2022-09-09T00:26:57;100607.81;;;14.96;89.24
72285;BME280;60220;53.552;10.092;2022-09-09T00:29:33;100605.91;;;15.26;88.38
72285;BME280;60220;53.552;10.092;2022-09-09T00:32:12;100617.47;;;15.24;87.27
72285;BME280;60220;53.552;10.092;2022-09-09T00:34:47;100607.31;;;15.36;87.40
72285;BME280;60220;53.552;10.092;2022-09-09T00:37:16;100610.28;;;15.27;87.21
72285;BME280;60220;53.552;10.092;2022-09-09T00:39:46;100608.72;;;15.22;87.42
72285;BME280;60220;53.552;10.092;2022-09-09T00:42:17;100613.81;;;15.28;87.81
72285;BME280;60220;53.552;10.092;2022-09-09T00:44:59;100597.75;;;15.59;84.29
72285;BME280;60220;53.552;10.092;2022-09-09T00:47:44;100618.88;;;14.81;87.55
72285;BME280;60220;53.552;10.092;2022-09-09T00:50:24;100607.69;;;14.99;89.12
72285;BME280;60220;53.552;10.092;2022-09-09T00:53:11;100609.06;;;14.85;88.73
72285;BME280;60220;53.552;10.092;2022-09-09T00:55:46;100601.22;;;14.83;87.96
72285;BME280;60220;53.552;10.092;2022-09-09T00:58:15;100604.03;;;14.77;88.19
72285;BME280;60220;53.552;10.092;2022-09-09T01:00:47;100605.06;;;14.73;87.94
72285;BME280;60220;53.552;10.092;2022-09-09T01:03:27;100598.66;;;15.06;87.25
72285;BME280;60220;53.552;10.092;2022-09-09T01:06:01;100597.84;;;15.04;86.95
72285;BME280;60220;53.552;10.092;2022-09-09T01:09:02;100607.03;;;14.67;88.35
72285;BME280;60220;53.552;10.092;2022-09-09T01:11:37;100606.50;;;14.83;88.37
72285;BME280;60220;53.552;10.092;2022-09-09T01:14:14;100601.41;;;14.77;88.47
72285;BME280;60220;53.552;10.092;2022-09-09T01:16:44;100606.59;;;14.52;88.73
72285;BME280;60220;53.552;10.092;2022-09-09T01:19:20;100601.91;;;14.62;89.48
72285;BME280;60220;53.552;10.092;2022-09-09T01:22:00;100602.19;;;14.53;89.49
72285;BME280;60220;53.552;10.092;2022-09-09T01:24:36;100600.56;;;14.49;89.05
72285;BME280;60220;53.552;10.092;2022-09-09T01:27:09;100597.09;;;14.17;90.14
72285;BME280;60220;53.552;10.092;2022-09-09T01:29:36;100602.66;;;14.38;90.25
72285;BME280;60220;53.552;10.092;2022-09-09T01:32:37;100604.41;;;14.39;89.47
72285;BME280;60220;53.552;10.092;2022-09-09T01:35:07;100607.94;;;14.65;89.08
72285;BME280;60220;53.552;10.092;2022-09-09T01:37:36;100605.47;;;14.59;89.05
72285;BME280;60220;53.552;10.092;2022-09-09T01:40:03;100608.72;;;14.69;87.80
72285;BME280;60220;53.552;10.092;2022-09-09T01:42:31;100596.31;;;14.97;86.46
72285;BME280;60220;53.552;10.092;2022-09-09T01:44:58;100605.31;;;14.92;86.27
72285;BME280;60220;53.552;10.092;2022-09-09T01:47:25;100598.09;;;14.97;86.28
72285;BME280;60220;53.552;10.092;2022-09-09T01:49:51;100599.28;;;14.88;86.47
72285;BME280;60220;53.552;10.092;2022-09-09T01:52:18;100592.50;;;15.06;86.90
72285;BME280;60220;53.552;10.092;2022-09-09T01:54:44;100591.25;;;15.18;85.42
72285;BME280;60220;53.552;10.092;2022-09-09T01:57:15;100586.53;;;15.26;86.05
72285;BME280;60220;53.552;10.092;2022-09-09T02:00:00;100595.09;;;15.07;85.93
72285;BME280;60220;53.552;10.092;2022-09-09T02:02:32;100598.97;;;14.97;85.97
72285;BME280;60220;53.552;10.092;2022-09-09T02:05:09;100588.72;;;14.60;87.73
72285;BME280;60220;53.552;10.092;2022-09-09T02:07:42;100594.06;;;14.59;88.77
72285;BME280;60220;53.552;10.092;2022-09-09T02:10:11;100589.16;;;14.47;88.48
72285;BME280;60220;53.552;10.092;2022-09-09T02:12:42;100595.63;;;14.38;90.42
72285;BME280;60220;53.552;10.092;2022-09-09T02:15:17;100592.34;;;14.29;89.90
72285;BME280;60220;53.552;10.092;2022-09-09T02:17:46;100588.16;;;14.51;89.53
72285;BME280;60220;53.552;10.092;2022-09-09T02:20:18;100595.28;;;14.75;87.20
72285;BME280;60220;53.552;10.092;2022-09-09T02:22:48;100596.94;;;14.22;89.93
72285;BME280;60220;53.552;10.092;2022-09-09T02:25:18;100589.00;;;14.23;90.17
72285;BME280;60220;53.552;10.092;2022-09-09T02:27:47;100594.72;;;14.08;90.54
72285;BME280;60220;53.552;10.092;2022-09-09T02:30:17;100588.66;;;14.05;90.97
72285;BME280;60220;53.552;10.092;2022-09-09T02:32:46;100581.72;;;14.02;91.10
72285;BME280;60220;53.552;10.092;2022-09-09T02:35:18;100588.09;;;14.25;90.24
72285;BME280;60220;53.552;10.092;2022-09-09T02:37:46;100583.94;;;14.16;90.48
72285;BME280;60220;53.552;10.092;2022-09-09T02:40:14;100587.63;;;14.10;90.66
72285;BME280;60220;53.552;10.092;2022-09-09T02:42:42;100580.56;;;14.40;89.41
72285;BME280;60220;53.552;10.092;2022-09-09T02:45:13;100582.19;;;14.15;89.72
72285;BME280;60220;53.552;10.092;2022-09-09T02:47:46;100589.28;;;14.44;89.19
72285;BME280;60220;53.552;10.092;2022-09-09T02:50:17;100587.94;;;14.58;88.60
72285;BME280;60220;53.552;10.092;2022-09-09T02:52:52;100590.00;;;14.49;87.99
72285;BME280;60220;53.552;10.092;2022-09-09T02:55:25;100590.72;;;14.25;88.17
72285;BME280;60220;53.552;10.092;2022-09-09T02:57:57;100594.81;;;14.05;89.24
72285;BME280;60220;53.552;10.092;2022-09-09T03:00:26;100595.53;;;14.10;89.35
72285;BME280;60220;53.552;10.092;2022-09-09T03:02:56;100589.88;;;14.52;87.81
72285;BME280;60220;53.552;10.092;2022-09-09T03:05:22;100598.56;;;13.98;89.15
72285;BME280;60220;53.552;10.092;2022-09-09T03:07:49;100587.97;;;14.57;88.96
72285;BME280;60220;53.552;10.092;2022-09-09T03:10:18;100589.28;;;14.44;88.31
72285;BME280;60220;53.552;10.092;2022-09-09T03:12:45;100591.31;;;15.15;86.25
72285;BME280;60220;53.552;10.092;2022-09-09T03:15:11;100598.28;;;14.64;85.84
72285;BME280;60220;53.552;10.092;2022-09-09T03:17:38;100602.22;;;14.79;85.47
72285;BME280;60220;53.552;10.092;2022-09-09T03:20:07;100596.63;;;14.62;86.76
72285;BME280;60220;53.552;10.092;2022-09-09T03:22:33;100594.78;;;14.36;87.02
72285;BME280;60220;53.552;10.092;2022-09-09T03:25:04;100595.63;;;14.07;89.17
72285;BME280;60220;53.552;10.092;2022-09-09T03:27:31;100594.81;;;14.05;90.17
72285;BME280;60220;53.552;10.092;2022-09-09T03:29:57;100596.25;;;14.15;89.15
72285;BME280;60220;53.552;10.092;2022-09-09T03:32:24;100590.75;;;14.23;89.30
72285;BME280;60220;53.552;10.092;2022-09-09T03:34:53;100585.97;;;14.06;89.50
72285;BME280;60220;53.552;10.092;2022-09-09T03:37:21;100585.38;;;13.97;90.03
72285;BME280;60220;53.552;10.092;2022-09-09T03:39:48;100578.78;;;14.11;89.35
72285;BME280;60220;53.552;10.092;2022-09-09T03:42:15;100588.72;;;13.74;89.79
72285;BME280;60220;53.552;10.092;2022-09-09T03:44:44;100583.59;;;13.68;91.15
72285;BME280;60220;53.552;10.092;2022-09-09T03:47:18;100588.59;;;13.77;91.24
72285;BME280;60220;53.552;10.092;2022-09-09T03:49:45;100601.22;;;13.66;92.19
72285;BME280;60220;53.552;10.092;2022-09-09T03:52:11;100596.66;;;14.03;90.89
72285;BME280;60220;53.552;10.092;2022-09-09T03:54:40;100595.97;;;13.95;90.62
72285;BME280;60220;53.552;10.092;2022-09-09T03:57:10;100593.84;;;13.78;90.17
72285;BME280;60220;53.552;10.092;2022-09-09T03:59:37;100601.41;;;13.60;91.77
72285;BME280;60220;53.552;10.092;2022-09-09T04:02:03;100604.88;;;13.62;90.95
72285;BME280;60220;53.552;10.092;2022-09-09T04:04:32;100597.59;;;13.70;90.59
72285;BME280;60220;53.552;10.092;2022-09-09T04:06:58;100606.13;;;13.49;91.03
72285;BME280;60220;53.552;10.092;2022-09-09T04:09:25;100606.75;;;13.57;91.10
72285;BME280;60220;53.552;10.092;2022-09-09T04:11:53;100604.50;;;13.43;91.46
72285;BME280;60220;53.552;10.092;2022-09-09T04:14:21;100600.00;;;13.47;91.29
72285;BME280;60220;53.552;10.092;2022-09-09T04:16:48;100606.50;;;13.66;90.63
72285;BME280;60220;53.552;10.092;2022-09-09T04:19:15;100609.88;;;13.71;90.25
72285;BME280;60220;53.552;10.092;2022-09-09T04:21:42;100615.34;;;13.32;91.60
72285;BME280;60220;53.552;10.092;2022-09-09T04:24:09;100616.47;;;13.22;92.30
72285;BME280;60220;53.552;10.092;2022-09-09T04:26:36;100610.13;;;13.62;91.45
72285;BME280;60220;53.552;10.092;2022-09-09T04:29:04;100613.94;;;13.52;91.03
72285;BME280;60220;53.552;10.092;2022-09-09T04:31:37;100613.50;;;13.67;90.39
72285;BME280;60220;53.552;10.092;2022-09-09T04:34:07;100615.09;;;13.42;90.87
72285;BME280;60220;53.552;10.092;2022-09-09T04:36:36;100620.16;;;13.49;91.13
72285;BME280;60220;53.552;10.092;2022-09-09T04:39:02;100624.97;;;13.66;90.14
72285;BME280;60220;53.552;10.092;2022-09-09T04:41:31;100615.59;;;13.87;89.35
72285;BME280;60220;53.552;10.092;2022-09-09T04:43:58;100616.47;;;13.87;89.29
72285;BME280;60220;53.552;10.092;2022-09-09T04:46:26;100623.63;;;13.82;89.20
72285;BME280;60220;53.552;10.092;2022-09-09T04:48:53;100625.44;;;13.80;90.17
72285;BME280;60220;53.552;10.092;2022-09-09T04:51:22;100621.59;;;13.61;90.37
72285;BME280;60220;53.552;10.092;2022-09-09T04:53:49;100626.56;;;13.71;90.00
72285;BME280;60220;53.552;10.092;2022-09-09T04:56:17;100619.59;;;14.00;89.03
72285;BME280;60220;53.552;10.092;2022-09-09T04:58:46;100625.44;;;13.80;89.25
72285;BME280;60220;53.552;10.092;2022-09-09T05:01:17;100631.06;;;13.68;90.29
72285;BME280;60220;53.552;10.092;2022-09-09T05:03:48;100632.63;;;13.75;90.38
72285;BME280;60220;53.552;10.092;2022-09-09T05:06:16;100634.53;;;14.01;90.05
72285;BME280;60220;53.552;10.092;2022-09-09T05:08:44;100628.72;;;14.19;88.54
72285;BME280;60220;53.552;10.092;2022-09-09T05:11:15;100634.75;;;13.93;88.95
72285;BME280;60220;53.552;10.092;2022-09-09T05:13:42;100628.59;;;14.23;88.06
72285;BME280;60220;53.552;10.092;2022-09-09T05:16:11;100630.66;;;14.14;87.55
72285;BME280;60220;53.552;10.092;2022-09-09T05:18:38;100628.38;;;14.30;86.99
72285;BME280;60220;53.552;10.092;2022-09-09T05:21:06;100627.06;;;14.15;87.78
72285;BME280;60220;53.552;10.092;2022-09-09T05:23:35;100636.13;;;14.36;86.95
72285;BME280;60220;53.552;10.092;2022-09-09T05:26:03;100625.97;;;14.23;86.82
72285;BME280;60220;53.552;10.092;2022-09-09T05:28:30;100636.50;;;14.23;87.36
72285;BME280;60220;53.552;10.092;2022-09-09T05:30:58;100641.72;;;13.96;88.31
72285;BME280;60220;53.552;10.092;2022-09-09T05:33:26;100636.13;;;14.06;87.95
72285;BME280;60220;53.552;10.092;2022-09-09T05:35:57;100632.41;;;14.13;87.62
72285;BME280;60220;53.552;10.092;2022-09-09T05:38:25;100637.03;;;14.36;87.67
72285;BME280;60220;53.552;10.092;2022-09-09T05:40:52;100641.09;;;14.48;87.01
72285;BME280;60220;53.552;10.092;2022-09-09T05:43:20;100645.81;;;14.06;88.35
72285;BME280;60220;53.552;10.092;2022-09-09T05:45:47;100647.06;;;13.94;88.42
72285;BME280;60220;53.552;10.092;2022-09-09T05:48:14;100647.09;;;13.93;88.79
72285;BME280;60220;53.552;10.092;2022-09-09T05:50:41;100654.16;;;13.91;88.77
72285;BME280;60220;53.552;10.092;2022-09-09T05:53:08;100652.09;;;14.02;88.65
72285;BME280;60220;53.552;10.092;2022-09-09T05:55:38;100657.66;;;13.93;89.40
72285;BME280;60220;53.552;10.092;2022-09-09T05:58:04;100660.66;;;14.41;87.88
72285;BME280;60220;53.552;10.092;2022-09-09T06:00:31;100671.50;;;14.30;88.00
72285;BME280;60220;53.552;10.092;2022-09-09T06:02:58;100666.88;;;14.09;88.74
72285;BME280;60220;53.552;10.092;2022-09-09T06:05:24;100661.06;;;14.26;88.89
72285;BME280;60220;53.552;10.092;2022-09-09T06:07:54;100671.78;;;13.90;89.41
72285;BME280;60220;53.552;10.092;2022-09-09T06:10:22;100670.97;;;14.19;89.74
72285;BME280;60220;53.552;10.092;2022-09-09T06:12:52;100673.47;;;14.23;88.67
72285;BME280;60220;53.552;10.092;2022-09-09T06:15:18;100676.03;;;13.96;89.85
72285;BME280;60220;53.552;10.092;2022-09-09T06:17:45;100680.13;;;14.06;90.32
72285;BME280;60220;53.552;10.092;2022-09-09T06:20:13;100679.03;;;14.14;90.02
72285;BME280;60220;53.552;10.092;2022-09-09T06:22:42;100691.84;;;14.27;89.06
72285;BME280;60220;53.552;10.092;2022-09-09T06:25:12;100691.69;;;14.33;89.58
72285;BME280;60220;53.552;10.092;2022-09-09T06:27:38;100683.94;;;14.27;89.67
72285;BME280;60220;53.552;10.092;2022-09-09T06:30:10;100692.03;;;14.20;89.03
72285;BME280;60220;53.552;10.092;2022-09-09T06:32:37;100684.63;;;14.33;89.29
72285;BME280;60220;53.552;10.092;2022-09-09T06:35:07;100684.78;;;14.29;89.39
72285;BME280;60220;53.552;10.092;2022-09-09T06:37:35;100682.63;;;14.43;89.05
72285;BME280;60220;53.552;10.092;2022-09-09T06:40:02;100681.34;;;14.25;90.17
72285;BME280;60220;53.552;10.092;2022-09-09T06:42:30;100684.56;;;14.36;89.55
72285;BME280;60220;53.552;10.092;2022-09-09T06:44:59;100687.06;;;14.41;89.49
72285;BME280;60220;53.552;10.092;2022-09-09T06:47:30;100682.97;;;14.60;88.89
72285;BME280;60220;53.552;10.092;2022-09-09T06:49:56;100676.97;;;14.83;87.43
72285;BME280;60220;53.552;10.092;2022-09-09T06:52:23;100683.34;;;14.76;88.30
72285;BME280;60220;53.552;10.092;2022-09-09T06:54:50;100680.31;;;14.89;87.73
72285;BME280;60220;53.552;10.092;2022-09-09T06:57:18;100685.84;;;14.80;87.57
72285;BME280;60220;53.552;10.092;2022-09-09T06:59:45;100684.69;;;14.61;88.59
72285;BME280;60220;53.552;10.092;2022-09-09T07:02:11;100693.59;;;14.86;88.65
72285;BME280;60220;53.552;10.092;2022-09-09T07:04:39;100681.19;;;15.16;87.33
72285;BME280;60220;53.552;10.092;2022-09-09T07:07:08;100682.09;;;15.15;86.64
72285;BME280;60220;53.552;10.092;2022-09-09T07:09:37;100689.50;;;14.76;87.88
72285;BME280;60220;53.552;10.092;2022-09-09T07:12:04;100682.94;;;15.16;87.58
72285;BME280;60220;53.552;10.092;2022-09-09T07:14:31;100680.75;;;15.02;87.20
72285;BME280;60220;53.552;10.092;2022-09-09T07:16:58;100685.97;;;14.77;88.31
72285;BME280;60220;53.552;10.092;2022-09-09T07:19:25;100689.66;;;15.26;86.13
72285;BME280;60220;53.552;10.092;2022-09-09T07:21:55;100685.97;;;14.77;87.97
72285;BME280;60220;53.552;10.092;2022-09-09T07:24:22;100698.16;;;14.81;87.59
72285;BME280;60220;53.552;10.092;2022-09-09T07:26:48;100698.59;;;15.23;86.44
72285;BME280;60220;53.552;10.092;2022-09-09T07:29:17;100693.59;;;15.40;85.32
72285;BME280;60220;53.552;10.092;2022-09-09T07:31:43;100696.38;;;15.09;87.09
72285;BME280;60220;53.552;10.092;2022-09-09T07:34:10;100697.31;;;15.61;85.70
72285;BME280;60220;53.552;10.092;2022-09-09T07:36:38;100693.91;;;16.07;83.10
72285;BME280;60220;53.552;10.092;2022-09-09T07:39:11;100693.19;;;16.50;81.54
72285;BME280;60220;53.552;10.092;2022-09-09T07:41:43;100700.28;;;16.02;82.24
72285;BME280;60220;53.552;10.092;2022-09-09T07:44:11;100698.00;;;16.39;80.76
72285;BME280;60220;53.552;10.092;2022-09-09T07:46:38;100702.72;;;16.08;83.39
72285;BME280;60220;53.552;10.092;2022-09-09T07:49:07;100706.19;;;16.56;81.22
72285;BME280;60220;53.552;10.092;2022-09-09T07:51:35;100712.09;;;16.64;81.07
72285;BME280;60220;53.552;10.092;2022-09-09T07:54:04;100717.13;;;16.72;81.26
72285;BME280;60220;53.552;10.092;2022-09-09T07:56:32;100713.47;;;16.51;81.29
72285;BME280;60220;53.552;10.092;2022-09-09T07:58:59;100707.66;;;16.42;81.59
72285;BME280;60220;53.552;10.092;2022-09-09T08:01:28;100715.28;;;16.49;80.63
72285;BME280;60220;53.552;10.092;2022-09-09T08:03:56;100713.97;;;16.84;79.68
72285;BME280;60220;53.552;10.092;2022-09-09T08:06:26;100723.38;;;16.23;83.27
72285;BME280;60220;53.552;10.092;2022-09-09T08:08:53;100721.97;;;16.13;83.81
72285;BME280;60220;53.552;10.092;2022-09-09T08:11:22;100720.44;;;16.99;80.05
72285;BME280;60220;53.552;10.092;2022-09-09T08:13:51;100719.63;;;16.52;81.63
72285;BME280;60220;53.552;10.092;2022-09-09T08:16:20;100722.41;;;16.72;81.09
72285;BME280;60220;53.552;10.092;2022-09-09T08:18:48;100718.88;;;16.48;81.68
72285;BME280;60220;53.552;10.092;2022-09-09T08:21:18;100739.13;;;16.26;83.07
72285;BME280;60220;53.552;10.092;2022-09-09T08:23:47;100743.69;;;15.98;83.84
72285;BME280;60220;53.552;10.092;2022-09-09T08:26:15;100735.22;;;16.36;81.81
72285;BME280;60220;53.552;10.092;2022-09-09T08:28:43;100732.28;;;17.55;78.06
72285;BME280;60220;53.552;10.092;2022-09-09T08:31:13;100723.03;;;18.06;76.44
72285;BME280;60220;53.552;10.092;2022-09-09T08:33:40;100738.97;;;17.86;74.87
72285;BME280;60220;53.552;10.092;2022-09-09T08:36:09;100726.16;;;17.33;79.44
72285;BME280;60220;53.552;10.092;2022-09-09T08:38:36;100736.50;;;16.96;79.89
72285;BME280;60220;53.552;10.092;2022-09-09T08:41:22;100739.53;;;16.63;81.37
72285;BME280;60220;53.552;10.092;2022-09-09T08:44:02;100736.84;;;17.74;77.93
72285;BME280;60220;53.552;10.092;2022-09-09T08:46:36;100735.00;;;17.76;77.92
72285;BME280;60220;53.552;10.092;2022-09-09T08:49:15;100740.66;;;16.79;78.85
72285;BME280;60220;53.552;10.092;2022-09-09T08:51:48;100738.09;;;17.00;78.53
72285;BME280;60220;53.552;10.092;2022-09-09T08:54:15;100741.00;;;17.37;76.93
72285;BME280;60220;53.552;10.092;2022-09-09T08:56:42;100738.31;;;17.81;75.56
72285;BME280;60220;53.552;10.092;2022-09-09T08:59:16;100734.97;;;16.67;80.03
72285;BME280;60220;53.552;10.092;2022-09-09T09:01:51;100743.28;;;17.25;76.55
72285;BME280;60220;53.552;10.092;2022-09-09T09:04:41;100736.00;;;17.51;77.47
72285;BME280;60220;53.552;10.092;2022-09-09T09:07:21;100740.72;;;17.23;75.84
72285;BME280;60220;53.552;10.092;2022-09-09T09:09:58;100743.38;;;17.87;75.86
72285;BME280;60220;53.552;10.092;2022-09-09T09:12:39;100743.78;;;17.78;75.25
72285;BME280;60220;53.552;10.092;2022-09-09T09:15:13;100744.72;;;18.75;71.61
72285;BME280;60220;53.552;10.092;2022-09-09T09:17:43;100745.47;;;19.52;69.25
72285;BME280;60220;53.552;10.092;2022-09-09T09:20:14;100745.00;;;19.06;69.74
72285;BME280;60220;53.552;10.092;2022-09-09T09:22:48;100746.09;;;18.05;73.42
72285;BME280;60220;53.552;10.092;2022-09-09T09:25:19;100748.84;;;19.18;70.34
72285;BME280;60220;53.552;10.092;2022-09-09T09:27:54;100740.69;;;18.27;71.58
72285;BME280;60220;53.552;10.092;2022-09-09T09:30:29;100744.03;;;18.12;73.87
72285;BME280;60220;53.552;10.092;2022-09-09T09:33:02;100749.66;;;18.64;71.50
72285;BME280;60220;53.552;10.092;2022-09-09T09:35:29;100744.00;;;18.32;73.55
72285;BME280;60220;53.552;10.092;2022-09-09T09:37:56;100741.06;;;18.38;72.11
72285;BME280;60220;53.552;10.092;2022-09-09T09:40:22;100746.28;;;17.81;73.62
72285;BME280;60220;53.552;10.092;2022-09-09T09:42:53;100749.53;;;18.28;74.48
72285;BME280;60220;53.552;10.092;2022-09-09T09:45:33;100749.69;;;18.43;75.01
72285;BME280;60220;53.552;10.092;2022-09-09T09:48:06;100745.97;;;18.68;70.63
72285;BME280;60220;53.552;10.092;2022-09-09T09:50:35;100748.50;;;19.25;69.24
72285;BME280;60220;53.552;10.092;2022-09-09T09:53:20;100741.88;;;17.80;73.61
72285;BME280;60220;53.552;10.092;2022-09-09T09:55:53;100742.06;;;18.75;70.52
72285;BME280;60220;53.552;10.092;2022-09-09T09:58:20;100747.78;;;19.58;68.50
72285;BME280;60220;53.552;10.092;2022-09-09T10:00:48;100752.81;;;19.28;69.51
72285;BME280;60220;53.552;10.092;2022-09-09T10:03:22;100752.69;;;18.75;70.78
72285;BME280;60220;53.552;10.092;2022-09-09T10:05:50;100755.50;;;18.33;73.14
72285;BME280;60220;53.552;10.092;2022-09-09T10:08:19;100747.16;;;18.98;69.38
72285;BME280;60220;53.552;10.092;2022-09-09T10:11:02;100748.47;;;18.71;71.87
72285;BME280;60220;53.552;10.092;2022-09-09T10:13:45;100747.97;;;19.00;69.57
72285;BME280;60220;53.552;10.092;2022-09-09T10:16:25;100748.03;;;18.99;71.28
72285;BME280;60220;53.552;10.092;2022-09-09T10:19:01;100740.22;;;19.13;70.60
72285;BME280;60220;53.552;10.092;2022-09-09T10:21:51;100743.44;;;18.65;73.07
72285;BME280;60220;53.552;10.092;2022-09-09T10:24:44;100734.31;;;20.12;65.68
72285;BME280;60220;53.552;10.092;2022-09-09T10:27:20;100737.22;;;19.20;70.24
72285;BME280;60220;53.552;10.092;2022-09-09T10:30:05;100734.19;;;19.47;68.16
72285;BME280;60220;53.552;10.092;2022-09-09T10:32:41;100733.00;;;19.33;70.25
72285;BME280;60220;53.552;10.092;2022-09-09T10:35:23;100729.59;;;20.17;67.05
72285;BME280;60220;53.552;10.092;2022-09-09T10:38:03;100732.00;;;20.06;67.32
72285;BME280;60220;53.552;10.092;2022-09-09T10:40:39;100740.69;;;20.10;64.46
72285;BME280;60220;53.552;10.092;2022-09-09T10:43:12;100730.53;;;20.51;63.14
72285;BME280;60220;53.552;10.092;2022-09-09T10:45:50;100722.81;;;20.62;63.96
72285;BME280;60220;53.552;10.092;2022-09-09T10:48:40;100731.84;;;19.92;64.97
72285;BME280;60220;53.552;10.092;2022-09-09T10:51:23;100734.63;;;19.19;68.53
72285;BME280;60220;53.552;10.092;2022-09-09T10:54:06;100734.19;;;19.47;68.31
72285;BME280;60220;53.552;10.092;2022-09-09T10:56:36;100731.22;;;19.87;67.67
72285;BME280;60220;53.552;10.092;2022-09-09T10:59:08;100738.50;;;19.84;68.15
72285;BME280;60220;53.552;10.092;2022-09-09T11:01:41;100734.19;;;19.81;69.56
72285;BME280;60220;53.552;10.092;2022-09-09T11:04:12;100730.13;;;19.91;67.83
72285;BME280;60220;53.552;10.092;2022-09-09T11:06:47;100726.44;;;19.59;69.26
72285;BME280;60220;53.552;10.092;2022-09-09T11:09:20;100730.75;;;19.79;66.74
72285;BME280;60220;53.552;10.092;2022-09-09T11:11:52;100724.28;;;20.17;67.16
72285;BME280;60220;53.552;10.092;2022-09-09T11:14:28;100714.44;;;20.68;63.44
72285;BME280;60220;53.552;10.092;2022-09-09T11:16:58;100721.94;;;20.61;64.38
72285;BME280;60220;53.552;10.092;2022-09-09T11:19:33;100717.47;;;20.62;65.35
72285;BME280;60220;53.552;10.092;2022-09-09T11:22:05;100716.94;;;20.55;65.10
72285;BME280;60220;53.552;10.092;2022-09-09T11:24:37;100717.94;;;20.53;63.61
72285;BME280;60220;53.552;10.092;2022-09-09T11:27:09;100720.31;;;20.90;62.70
72285;BME280;60220;53.552;10.092;2022-09-09T11:30:05;100724.47;;;20.32;65.10
72285;BME280;60220;53.552;10.092;2022-09-09T11:33:09;100724.69;;;20.60;65.32
72285;BME280;60220;53.552;10.092;2022-09-09T11:35:55;100739.28;;;19.68;67.84
72285;BME280;60220;53.552;10.092;2022-09-09T11:38:27;100738.09;;;20.08;66.53
72285;BME280;60220;53.552;10.092;2022-09-09T11:40:58;100736.81;;;20.33;65.88
72285;BME280;60220;53.552;10.092;2022-09-09T11:43:31;100747.59;;;19.80;67.48
72285;BME280;60220;53.552;10.092;2022-09-09T11:46:01;100736.06;;;20.31;65.48
72285;BME280;60220;53.552;10.092;2022-09-09T11:48:36;100744.34;;;20.25;66.52
72285;BME280;60220;53.552;10.092;2022-09-09T11:51:06;100739.66;;;20.78;64.18
72285;BME280;60220;53.552;10.092;2022-09-09T11:53:46;100739.25;;;20.20;65.60
72285;BME280;60220;53.552;10.092;2022-09-09T11:56:24;100751.66;;;20.04;67.40
72285;BME280;60220;53.552;10.092;2022-09-09T11:58:57;100747.56;;;20.14;65.52
72285;BME280;60220;53.552;10.092;2022-09-09T12:01:35;100744.78;;;20.50;65.57
72285;BME280;60220;53.552;10.092;2022-09-09T12:06:58;100731.38;;;21.16;63.69
72285;BME280;60220;53.552;10.092;2022-09-09T12:09:32;100733.41;;;20.95;64.48
72285;BME280;60220;53.552;10.092;2022-09-09T12:12:21;100732.13;;;20.86;65.15
72285;BME280;60220;53.552;10.092;2022-09-09T12:17:42;100728.59;;;20.53;61.83
72285;BME280;60220;53.552;10.092;2022-09-09T12:20:13;100730.66;;;19.98;64.86
72285;BME280;60220;53.552;10.092;2022-09-09T12:22:52;100723.50;;;20.81;62.74
72285;BME280;60220;53.552;10.092;2022-09-09T12:25:32;100729.41;;;20.55;63.85
72285;BME280;60220;53.552;10.092;2022-09-09T12:28:05;100735.91;;;19.65;66.20
72285;BME280;60220;53.552;10.092;2022-09-09T12:30:41;100739.44;;;20.00;66.64
72285;BME280;60220;53.552;10.092;2022-09-09T12:33:16;100738.56;;;19.99;65.63
72285;BME280;60220;53.552;10.092;2022-09-09T12:35:45;100736.84;;;19.98;66.39
72285;BME280;60220;53.552;10.092;2022-09-09T12:38:19;100741.44;;;20.29;66.04
72285;BME280;60220;53.552;10.092;2022-09-09T12:40:55;100746.59;;;19.82;65.98
72285;BME280;60220;53.552;10.092;2022-09-09T12:43:24;100740.16;;;19.86;67.69
72285;BME280;60220;53.552;10.092;2022-09-09T12:45:53;100734.88;;;19.50;68.29
72285;BME280;60220;53.552;10.092;2022-09-09T12:48:28;100733.41;;;19.62;68.72
72285;BME280;60220;53.552;10.092;2022-09-09T12:50:56;100726.16;;;20.33;66.25
72285;BME280;60220;53.552;10.092;2022-09-09T12:53:29;100720.34;;;20.57;66.31
72285;BME280;60220;53.552;10.092;2022-09-09T12:55:59;100721.84;;;20.94;64.99
72285;BME280;60220;53.552;10.092;2022-09-09T12:58:29;100727.28;;;20.11;67.25
72285;BME280;60220;53.552;10.092;2022-09-09T13:01:00;100729.75;;;19.82;67.34
72285;BME280;60220;53.552;10.092;2022-09-09T13:03:30;100729.63;;;19.49;68.71
72285;BME280;60220;53.552;10.092;2022-09-09T13:05:58;100726.47;;;18.86;72.29
72285;BME280;60220;53.552;10.092;2022-09-09T13:08:36;100741.13;;;18.76;73.19